Airfield :
LOGIN :

Register | Disclaimer

   EN    FR    IT 

 










Legend :    VFR   Marginal VFR   IFR   Intensive IFR   Very Intensive IFR
Visi :
Ceiling :
>= 8 km
>= 3000ft
5 to 8 km
1000 to 3000 ft
1500m to 5 km
500 to 1000 ft
800 to 1500m
200 to 500 ft
< 800m
< 200 ft
Symbols :   Thunderstorms  Fog  Heavy snow  Heavy precipitations  Wind > 20 kt
SIGMETs :     Misc.  Thunderstorms  Icing  Turbulence  Mountain Waves  Volcanic Ashes






- Airport Elevation : 796 ft
- IATA code : SYT


LFLN - Saint-Yan

CURRENT METAR :
  • 191500Z AUTO 30009KT 9999 FEW033 SCT047 BKN098 10/02 Q1028 NOSIG

EXPIRED METARs :
  • 191430Z AUTO 31009KT 9999 FEW044 OVC130 10/03 Q1028 NOSIG
  • 191400Z AUTO 29009KT 9999 SCT035 BKN050 OVC140 10/03 Q1028 NOSIG
  • 191330Z AUTO 29010KT 9999 FEW032 BKN045 BKN054 10/02 Q1027 NOSIG
  • 191300Z AUTO 29009KT 250V320 9999 BKN032 BKN039 OVC160 10/03 Q1028 NOSIG
  • 191230Z AUTO 30011KT 9999 BKN033 BKN040 BKN100 10/03 Q1028 NOSIG

TAF TAF LFLN
Valid from the 19 at 15:00 until the 20 at 00:00 UTC


191400Z 1915/1924 30007KT 9999 FEW035 BKN080



MET'MAP, your aeronautical weather chart ! - Copyright ORBIFLY December 2007 - Disclaimer

ORBIFLY MET'MAP TEAM :

Programming & Development : Alexandra Zaïnal
Concept & original design : Baudouin d'Aumeries
Assistance for programming : Marc-Olivier Méhu
Technical & hardware support : Manuel Goepfert

Contact : metmap@orbifly.com




SOURCES & CREDITS :

   NOAA